sensor_id;sensor_type;location;lat;lon;timestamp;pressure;altitude;pressure_sealevel;temperature;humidity
61337;BME280;47212;41.326;2.104;2023-05-20T00:03:20;101328.84;;;16.40;78.91
61337;BME280;47212;41.326;2.104;2023-05-20T00:08:23;101316.50;;;16.37;78.96
61337;BME280;47212;41.326;2.104;2023-05-20T00:13:26;101306.09;;;16.34;79.26
61337;BME280;47212;41.326;2.104;2023-05-20T00:18:28;101301.47;;;16.30;79.50
61337;BME280;47212;41.326;2.104;2023-05-20T00:23:34;101293.50;;;16.28;79.15
61337;BME280;47212;41.326;2.104;2023-05-20T00:28:36;101284.72;;;16.26;79.39
61337;BME280;47212;41.326;2.104;2023-05-20T00:33:40;101289.69;;;16.24;78.74
61337;BME280;47212;41.326;2.104;2023-05-20T00:38:43;101297.41;;;16.22;79.08
61337;BME280;47212;41.326;2.104;2023-05-20T00:43:45;101291.38;;;16.20;78.77
61337;BME280;47212;41.326;2.104;2023-05-20T00:48:48;101282.06;;;16.16;79.09
61337;BME280;47212;41.326;2.104;2023-05-20T00:53:51;101273.03;;;16.10;78.63
61337;BME280;47212;41.326;2.104;2023-05-20T00:58:54;101263.97;;;16.10;77.81
61337;BME280;47212;41.326;2.104;2023-05-20T01:05:12;101255.75;;;16.10;77.83
61337;BME280;47212;41.326;2.104;2023-05-20T01:10:14;101254.09;;;16.09;77.25
61337;BME280;47212;41.326;2.104;2023-05-20T01:15:17;101242.59;;;16.07;76.56
61337;BME280;47212;41.326;2.104;2023-05-20T01:20:20;101242.06;;;16.05;76.51
61337;BME280;47212;41.326;2.104;2023-05-20T01:25:23;101231.66;;;16.02;76.27
61337;BME280;47212;41.326;2.104;2023-05-20T01:30:34;101218.75;;;16.02;76.21
61337;BME280;47212;41.326;2.104;2023-05-20T01:35:41;101214.34;;;16.01;75.89
61337;BME280;47212;41.326;2.104;2023-05-20T01:40:46;101211.91;;;16.00;75.52
61337;BME280;47212;41.326;2.104;2023-05-20T01:45:49;101212.19;;;15.98;75.57
61337;BME280;47212;41.326;2.104;2023-05-20T01:50:52;101204.75;;;15.99;75.54
61337;BME280;47212;41.326;2.104;2023-05-20T01:55:55;101201.19;;;15.98;75.40
61337;BME280;47212;41.326;2.104;2023-05-20T02:00:58;101203.69;;;15.95;74.76
61337;BME280;47212;41.326;2.104;2023-05-20T02:06:01;101192.44;;;15.96;74.71
61337;BME280;47212;41.326;2.104;2023-05-20T02:11:04;101189.69;;;15.96;74.63
61337;BME280;47212;41.326;2.104;2023-05-20T02:16:06;101185.00;;;15.97;73.95
61337;BME280;47212;41.326;2.104;2023-05-20T02:21:10;101179.53;;;15.97;74.40
61337;BME280;47212;41.326;2.104;2023-05-20T02:26:15;101176.19;;;16.00;73.56
61337;BME280;47212;41.326;2.104;2023-05-20T02:31:18;101171.25;;;16.02;74.54
61337;BME280;47212;41.326;2.104;2023-05-20T02:36:20;101169.59;;;16.01;73.80
61337;BME280;47212;41.326;2.104;2023-05-20T02:41:22;101157.50;;;16.02;73.88
61337;BME280;47212;41.326;2.104;2023-05-20T02:46:25;101156.41;;;16.03;73.90
61337;BME280;47212;41.326;2.104;2023-05-20T02:51:27;101150.38;;;16.01;73.63
61337;BME280;47212;41.326;2.104;2023-05-20T02:56:29;101146.00;;;16.00;72.33
61337;BME280;47212;41.326;2.104;2023-05-20T03:01:35;101137.47;;;16.01;72.94
61337;BME280;47212;41.326;2.104;2023-05-20T03:06:38;101137.75;;;16.00;72.48
61337;BME280;47212;41.326;2.104;2023-05-20T03:11:45;101140.78;;;15.98;72.77
61337;BME280;47212;41.326;2.104;2023-05-20T03:16:48;101137.22;;;15.98;73.04
61337;BME280;47212;41.326;2.104;2023-05-20T03:21:50;101142.19;;;15.96;72.90
61337;BME280;47212;41.326;2.104;2023-05-20T03:26:55;101136.41;;;15.97;72.93
61337;BME280;47212;41.326;2.104;2023-05-20T03:31:58;101124.59;;;15.97;72.77
61337;BME280;47212;41.326;2.104;2023-05-20T03:37:01;101108.13;;;15.97;72.53
61337;BME280;47212;41.326;2.104;2023-05-20T03:42:04;101095.50;;;15.96;72.44
61337;BME280;47212;41.326;2.104;2023-05-20T03:47:06;101101.59;;;15.92;72.97
61337;BME280;47212;41.326;2.104;2023-05-20T03:52:08;101097.72;;;15.93;73.18
61337;BME280;47212;41.326;2.104;2023-05-20T03:57:11;101094.47;;;15.91;72.81
61337;BME280;47212;41.326;2.104;2023-05-20T04:10:42;101110.97;;;15.86;72.59
61337;BME280;47212;41.326;2.104;2023-05-20T04:15:46;101108.22;;;15.86;72.60
61337;BME280;47212;41.326;2.104;2023-05-20T04:20:48;101107.69;;;15.84;72.19
61337;BME280;47212;41.326;2.104;2023-05-20T04:25:55;101111.84;;;15.82;72.14
61337;BME280;47212;41.326;2.104;2023-05-20T04:31:05;101115.44;;;15.77;72.07
61337;BME280;47212;41.326;2.104;2023-05-20T04:36:10;101114.63;;;15.77;72.14
61337;BME280;47212;41.326;2.104;2023-05-20T04:41:18;101117.66;;;15.75;71.42
61337;BME280;47212;41.326;2.104;2023-05-20T04:46:20;101121.53;;;15.74;71.21
61337;BME280;47212;41.326;2.104;2023-05-20T04:51:22;101119.06;;;15.73;71.31
61337;BME280;47212;41.326;2.104;2023-05-20T04:56:25;101113.56;;;15.73;71.23
61337;BME280;47212;41.326;2.104;2023-05-20T05:01:28;101107.78;;;15.74;70.99
61337;BME280;47212;41.326;2.104;2023-05-20T05:06:30;101116.84;;;15.75;70.91
61337;BME280;47212;41.326;2.104;2023-05-20T05:11:33;101116.03;;;15.74;70.35
61337;BME280;47212;41.326;2.104;2023-05-20T05:16:35;101112.19;;;15.75;70.35
61337;BME280;47212;41.326;2.104;2023-05-20T05:21:37;101120.94;;;15.77;69.71
61337;BME280;47212;41.326;2.104;2023-05-20T05:26:40;101110.78;;;15.78;69.62
61337;BME280;47212;41.326;2.104;2023-05-20T05:31:43;101111.03;;;15.81;69.23
61337;BME280;47212;41.326;2.104;2023-05-20T05:36:45;101112.66;;;15.82;68.89
61337;BME280;47212;41.326;2.104;2023-05-20T05:41:47;101104.97;;;15.84;68.72
61337;BME280;47212;41.326;2.104;2023-05-20T05:46:50;101100.53;;;15.88;68.63
61337;BME280;47212;41.326;2.104;2023-05-20T05:51:52;101091.66;;;15.97;68.69
61337;BME280;47212;41.326;2.104;2023-05-20T05:56:55;101091.09;;;16.00;68.08
61337;BME280;47212;41.326;2.104;2023-05-20T07:57:26;101077.81;;;18.73;57.88
61337;BME280;47212;41.326;2.104;2023-05-20T08:02:30;101067.78;;;18.91;57.31
61337;BME280;47212;41.326;2.104;2023-05-20T08:07:33;101078.88;;;19.14;57.09
61337;BME280;47212;41.326;2.104;2023-05-20T08:12:36;101068.22;;;19.43;57.17
61337;BME280;47212;41.326;2.104;2023-05-20T08:22:49;101065.53;;;19.74;55.47
61337;BME280;47212;41.326;2.104;2023-05-20T08:27:51;101058.94;;;19.84;55.15
61337;BME280;47212;41.326;2.104;2023-05-20T08:32:54;101049.63;;;20.02;54.74
61337;BME280;47212;41.326;2.104;2023-05-20T08:37:58;101050.34;;;20.16;54.52
61337;BME280;47212;41.326;2.104;2023-05-20T08:43:03;101052.97;;;20.30;54.25
61337;BME280;47212;41.326;2.104;2023-05-20T08:48:05;101050.94;;;20.44;53.15
61337;BME280;47212;41.326;2.104;2023-05-20T08:53:08;101059.28;;;20.70;52.41
61337;BME280;47212;41.326;2.104;2023-05-20T08:58:16;101048.63;;;20.94;51.34
61337;BME280;47212;41.326;2.104;2023-05-20T09:03:23;101056.09;;;21.20;51.47
61337;BME280;47212;41.326;2.104;2023-05-20T09:08:26;101047.47;;;21.47;50.34
61337;BME280;47212;41.326;2.104;2023-05-20T09:13:32;101057.25;;;21.71;49.61
61337;BME280;47212;41.326;2.104;2023-05-20T09:18:39;101056.72;;;21.86;48.25
61337;BME280;47212;41.326;2.104;2023-05-20T09:23:46;101057.66;;;21.99;48.26
61337;BME280;47212;41.326;2.104;2023-05-20T09:28:48;101057.28;;;22.17;48.48
61337;BME280;47212;41.326;2.104;2023-05-20T09:33:51;101043.22;;;22.22;47.39
61337;BME280;47212;41.326;2.104;2023-05-20T09:38:59;101052.22;;;22.49;46.73
61337;BME280;47212;41.326;2.104;2023-05-20T09:44:06;101048.59;;;22.57;47.49
61337;BME280;47212;41.326;2.104;2023-05-20T09:49:09;101046.97;;;22.85;47.07
61337;BME280;47212;41.326;2.104;2023-05-20T09:54:12;101033.56;;;22.87;47.08
61337;BME280;47212;41.326;2.104;2023-05-20T09:59:16;101039.31;;;22.82;47.95
61337;BME280;47212;41.326;2.104;2023-05-20T10:04:19;101036.06;;;22.80;47.57
61337;BME280;47212;41.326;2.104;2023-05-20T10:15:01;101051.28;;;22.74;47.61
61337;BME280;47212;41.326;2.104;2023-05-20T10:20:08;101041.78;;;22.46;48.00
61337;BME280;47212;41.326;2.104;2023-05-20T10:25:24;101042.97;;;21.98;48.72
61337;BME280;47212;41.326;2.104;2023-05-20T10:30:27;101052.50;;;21.80;49.42
61337;BME280;47212;41.326;2.104;2023-05-20T10:35:29;101060.28;;;21.86;49.45
61337;BME280;47212;41.326;2.104;2023-05-20T10:40:32;101054.75;;;21.86;49.16
61337;BME280;47212;41.326;2.104;2023-05-20T10:45:49;101048.41;;;21.77;48.01
61337;BME280;47212;41.326;2.104;2023-05-20T10:50:56;101055.59;;;21.78;47.94
61337;BME280;47212;41.326;2.104;2023-05-20T10:55:58;101041.88;;;21.82;48.69
61337;BME280;47212;41.326;2.104;2023-05-20T11:01:01;101031.63;;;21.74;48.36
61337;BME280;47212;41.326;2.104;2023-05-20T11:06:14;101030.69;;;21.70;47.58
61337;BME280;47212;41.326;2.104;2023-05-20T11:11:19;101008.34;;;21.75;49.16
61337;BME280;47212;41.326;2.104;2023-05-20T11:16:22;101009.78;;;21.81;48.38
61337;BME280;47212;41.326;2.104;2023-05-20T11:21:24;101009.81;;;21.63;48.31
61337;BME280;47212;41.326;2.104;2023-05-20T11:26:28;101005.94;;;21.47;48.54
61337;BME280;47212;41.326;2.104;2023-05-20T11:31:31;101007.88;;;21.47;48.29
61337;BME280;47212;41.326;2.104;2023-05-20T11:36:33;101003.34;;;21.42;48.52
61337;BME280;47212;41.326;2.104;2023-05-20T11:41:35;101019.81;;;21.39;48.27
61337;BME280;47212;41.326;2.104;2023-05-20T11:46:42;101005.94;;;21.47;47.56
61337;BME280;47212;41.326;2.104;2023-05-20T11:51:48;100994.19;;;21.50;47.09
61337;BME280;47212;41.326;2.104;2023-05-20T11:56:53;100993.69;;;21.57;47.84
61337;BME280;47212;41.326;2.104;2023-05-20T12:01:55;100995.47;;;21.61;47.54
61337;BME280;47212;41.326;2.104;2023-05-20T12:06:57;100994.66;;;21.70;47.15
61337;BME280;47212;41.326;2.104;2023-05-20T12:12:00;100991.03;;;21.78;47.55
61337;BME280;47212;41.326;2.104;2023-05-20T12:17:04;101001.47;;;21.81;46.37
61337;BME280;47212;41.326;2.104;2023-05-20T12:22:06;100987.91;;;21.88;46.48
61337;BME280;47212;41.326;2.104;2023-05-20T12:27:08;100984.75;;;21.98;46.18
61337;BME280;47212;41.326;2.104;2023-05-20T12:32:11;100986.22;;;22.04;47.57
61337;BME280;47212;41.326;2.104;2023-05-20T12:37:13;100989.78;;;22.13;48.10
61337;BME280;47212;41.326;2.104;2023-05-20T12:42:15;100998.81;;;21.93;51.20
61337;BME280;47212;41.326;2.104;2023-05-20T12:47:19;100994.00;;;21.73;53.21
61337;BME280;47212;41.326;2.104;2023-05-20T12:52:21;100992.84;;;21.74;53.03
61337;BME280;47212;41.326;2.104;2023-05-20T12:57:24;101003.00;;;21.52;54.08
61337;BME280;47212;41.326;2.104;2023-05-20T13:02:26;101002.06;;;21.31;55.38
61337;BME280;47212;41.326;2.104;2023-05-20T13:07:33;101002.38;;;21.21;55.70
61337;BME280;47212;41.326;2.104;2023-05-20T13:12:36;100992.78;;;21.27;54.73
61337;BME280;47212;41.326;2.104;2023-05-20T13:17:40;101009.56;;;21.30;55.00
61337;BME280;47212;41.326;2.104;2023-05-20T13:22:43;101004.31;;;21.46;54.61
61337;BME280;47212;41.326;2.104;2023-05-20T13:27:46;100995.66;;;21.48;54.21
61337;BME280;47212;41.326;2.104;2023-05-20T13:32:48;100997.47;;;21.44;52.75
61337;BME280;47212;41.326;2.104;2023-05-20T13:37:50;101007.38;;;21.62;53.36
61337;BME280;47212;41.326;2.104;2023-05-20T13:42:53;100990.88;;;21.83;53.60
61337;BME280;47212;41.326;2.104;2023-05-20T13:47:55;100989.81;;;21.96;53.64
61337;BME280;47212;41.326;2.104;2023-05-20T13:52:57;100993.44;;;21.88;53.19
61337;BME280;47212;41.326;2.104;2023-05-20T13:57:59;101003.91;;;21.82;54.04
61337;BME280;47212;41.326;2.104;2023-05-20T14:03:02;100993.34;;;21.76;54.22
61337;BME280;47212;41.326;2.104;2023-05-20T14:08:05;100991.41;;;21.68;53.77
61337;BME280;47212;41.326;2.104;2023-05-20T14:13:08;100996.31;;;21.53;53.82
61337;BME280;47212;41.326;2.104;2023-05-20T14:18:11;100982.31;;;21.50;54.25
61337;BME280;47212;41.326;2.104;2023-05-20T14:23:13;100987.72;;;21.29;54.18
61337;BME280;47212;41.326;2.104;2023-05-20T14:28:16;100980.41;;;21.16;54.96
61337;BME280;47212;41.326;2.104;2023-05-20T14:33:18;100972.59;;;21.09;55.20
61337;BME280;47212;41.326;2.104;2023-05-20T14:38:20;100976.16;;;21.10;54.87
61337;BME280;47212;41.326;2.104;2023-05-20T14:43:22;100982.84;;;21.09;53.59
61337;BME280;47212;41.326;2.104;2023-05-20T14:48:25;100990.97;;;21.14;54.01
61337;BME280;47212;41.326;2.104;2023-05-20T14:53:27;100998.47;;;21.05;55.03
61337;BME280;47212;41.326;2.104;2023-05-20T14:58:31;100999.94;;;20.85;55.67
61337;BME280;47212;41.326;2.104;2023-05-20T15:03:33;100999.41;;;20.74;57.09
61337;BME280;47212;41.326;2.104;2023-05-20T15:08:39;100998.44;;;20.70;56.35
61337;BME280;47212;41.326;2.104;2023-05-20T15:13:42;101003.31;;;20.73;56.37
61337;BME280;47212;41.326;2.104;2023-05-20T15:18:47;101016.19;;;20.69;56.94
61337;BME280;47212;41.326;2.104;2023-05-20T15:25:21;101015.34;;;20.60;58.87
61337;BME280;47212;41.326;2.104;2023-05-20T15:30:23;101001.34;;;20.56;59.10
61337;BME280;47212;41.326;2.104;2023-05-20T15:35:25;100999.72;;;20.47;60.07
61337;BME280;47212;41.326;2.104;2023-05-20T15:40:27;101005.31;;;20.24;60.95
61337;BME280;47212;41.326;2.104;2023-05-20T15:45:30;101015.03;;;20.13;60.88
61337;BME280;47212;41.326;2.104;2023-05-20T15:50:32;101030.34;;;20.19;61.39
61337;BME280;47212;41.326;2.104;2023-05-20T15:55:34;101037.28;;;20.08;61.61
61337;BME280;47212;41.326;2.104;2023-05-20T16:00:36;101039.84;;;19.96;62.74
61337;BME280;47212;41.326;2.104;2023-05-20T16:05:38;101042.31;;;19.75;63.93
61337;BME280;47212;41.326;2.104;2023-05-20T16:10:41;101036.38;;;19.59;64.07
61337;BME280;47212;41.326;2.104;2023-05-20T16:15:43;101045.19;;;19.48;63.77
61337;BME280;47212;41.326;2.104;2023-05-20T16:20:45;101052.28;;;19.40;62.98
61337;BME280;47212;41.326;2.104;2023-05-20T16:25:47;101051.78;;;19.38;62.66
61337;BME280;47212;41.326;2.104;2023-05-20T16:30:49;101056.50;;;19.37;63.14
61337;BME280;47212;41.326;2.104;2023-05-20T16:35:51;101058.94;;;19.39;63.20
61337;BME280;47212;41.326;2.104;2023-05-20T16:40:58;101074.31;;;19.31;61.80
61337;BME280;47212;41.326;2.104;2023-05-20T16:46:00;101074.75;;;19.25;61.95
61337;BME280;47212;41.326;2.104;2023-05-20T16:51:06;101069.66;;;19.18;61.53
61337;BME280;47212;41.326;2.104;2023-05-20T16:56:08;101083.38;;;19.09;60.98
61337;BME280;47212;41.326;2.104;2023-05-20T17:01:11;101088.41;;;19.07;60.22
61337;BME280;47212;41.326;2.104;2023-05-20T17:06:13;101088.41;;;19.07;59.73
61337;BME280;47212;41.326;2.104;2023-05-20T17:11:15;101098.00;;;19.10;59.47
61337;BME280;47212;41.326;2.104;2023-05-20T17:16:17;101096.56;;;19.13;59.51
61337;BME280;47212;41.326;2.104;2023-05-20T17:21:19;101105.66;;;19.13;59.62
61337;BME280;47212;41.326;2.104;2023-05-20T17:26:21;101103.59;;;19.19;59.91
61337;BME280;47212;41.326;2.104;2023-05-20T17:31:23;101101.34;;;19.21;60.63
61337;BME280;47212;41.326;2.104;2023-05-20T17:36:25;101100.72;;;19.24;61.06
61337;BME280;47212;41.326;2.104;2023-05-20T17:41:27;101102.34;;;19.25;60.94
61337;BME280;47212;41.326;2.104;2023-05-20T17:46:29;101107.66;;;19.21;60.37
61337;BME280;47212;41.326;2.104;2023-05-20T17:51:35;101117.69;;;19.17;59.91
61337;BME280;47212;41.326;2.104;2023-05-20T17:56:37;101122.72;;;19.15;59.79
61337;BME280;47212;41.326;2.104;2023-05-20T18:01:39;101124.03;;;19.18;59.43
61337;BME280;47212;41.326;2.104;2023-05-20T18:06:42;101126.19;;;19.21;59.59
61337;BME280;47212;41.326;2.104;2023-05-20T18:11:44;101130.56;;;19.22;59.34
61337;BME280;47212;41.326;2.104;2023-05-20T18:16:46;101117.28;;;19.24;59.15
61337;BME280;47212;41.326;2.104;2023-05-20T18:21:49;101122.28;;;19.22;58.65
61337;BME280;47212;41.326;2.104;2023-05-20T18:26:51;101120.16;;;19.19;58.81
61337;BME280;47212;41.326;2.104;2023-05-20T18:31:53;101114.13;;;19.17;58.83
61337;BME280;47212;41.326;2.104;2023-05-20T18:36:56;101107.72;;;19.07;59.16
61337;BME280;47212;41.326;2.104;2023-05-20T18:42:02;101111.06;;;19.04;59.14
61337;BME280;47212;41.326;2.104;2023-05-20T18:47:04;101113.81;;;19.04;59.00
61337;BME280;47212;41.326;2.104;2023-05-20T18:52:06;101116.06;;;19.02;59.00
61337;BME280;47212;41.326;2.104;2023-05-20T18:57:09;101108.72;;;18.98;59.11
61337;BME280;47212;41.326;2.104;2023-05-20T19:02:11;101108.53;;;18.94;59.48
61337;BME280;47212;41.326;2.104;2023-05-20T19:07:17;101104.75;;;18.90;59.75
61337;BME280;47212;41.326;2.104;2023-05-20T19:12:24;101119.06;;;18.92;59.76
61337;BME280;47212;41.326;2.104;2023-05-20T19:17:26;101106.91;;;18.93;60.04
61337;BME280;47212;41.326;2.104;2023-05-20T19:22:28;101112.41;;;18.93;60.36
61337;BME280;47212;41.326;2.104;2023-05-20T19:27:30;101103.13;;;18.89;60.32
61337;BME280;47212;41.326;2.104;2023-05-20T19:32:32;101114.47;;;18.88;60.16
61337;BME280;47212;41.326;2.104;2023-05-20T19:37:35;101114.16;;;18.89;60.13
61337;BME280;47212;41.326;2.104;2023-05-20T19:42:37;101115.78;;;18.90;59.64
61337;BME280;47212;41.326;2.104;2023-05-20T19:47:40;101116.91;;;18.89;59.47
61337;BME280;47212;41.326;2.104;2023-05-20T19:52:42;101121.31;;;18.90;59.33
61337;BME280;47212;41.326;2.104;2023-05-20T19:57:44;101127.34;;;18.92;59.46
61337;BME280;47212;41.326;2.104;2023-05-20T20:02:48;101135.59;;;18.92;59.47
61337;BME280;47212;41.326;2.104;2023-05-20T20:07:52;101144.38;;;18.94;59.64
61337;BME280;47212;41.326;2.104;2023-05-20T20:12:55;101138.88;;;18.94;60.19
61337;BME280;47212;41.326;2.104;2023-05-20T20:17:58;101140.00;;;18.93;60.24
61337;BME280;47212;41.326;2.104;2023-05-20T20:23:00;101150.31;;;18.88;60.49
61337;BME280;47212;41.326;2.104;2023-05-20T20:28:06;101148.69;;;18.87;61.10
61337;BME280;47212;41.326;2.104;2023-05-20T20:33:09;101154.00;;;18.83;61.21
61337;BME280;47212;41.326;2.104;2023-05-20T20:38:11;101165.16;;;18.78;61.11
61337;BME280;47212;41.326;2.104;2023-05-20T20:43:13;101157.47;;;18.75;61.61
61337;BME280;47212;41.326;2.104;2023-05-20T20:48:22;101160.56;;;18.73;61.49
61337;BME280;47212;41.326;2.104;2023-05-20T20:53:28;101173.31;;;18.69;61.77
61337;BME280;47212;41.326;2.104;2023-05-20T20:58:32;101163.50;;;18.63;61.59
61337;BME280;47212;41.326;2.104;2023-05-20T21:03:35;101163.88;;;18.57;61.28
61337;BME280;47212;41.326;2.104;2023-05-20T21:08:41;101161.44;;;18.55;61.04
61337;BME280;47212;41.326;2.104;2023-05-20T21:13:43;101164.81;;;18.52;60.85
61337;BME280;47212;41.326;2.104;2023-05-20T21:18:45;101161.75;;;18.54;60.47
61337;BME280;47212;41.326;2.104;2023-05-20T21:23:48;101155.63;;;18.57;60.41
61337;BME280;47212;41.326;2.104;2023-05-20T21:28:52;101152.25;;;18.60;60.11
61337;BME280;47212;41.326;2.104;2023-05-20T21:34:00;101156.88;;;18.64;60.08
61337;BME280;47212;41.326;2.104;2023-05-20T21:39:05;101150.75;;;18.67;59.75
61337;BME280;47212;41.326;2.104;2023-05-20T21:44:07;101150.44;;;18.69;59.64
61337;BME280;47212;41.326;2.104;2023-05-20T21:49:09;101147.16;;;18.67;59.79
61337;BME280;47212;41.326;2.104;2023-05-20T21:54:12;101161.56;;;18.64;59.38
61337;BME280;47212;41.326;2.104;2023-05-20T21:59:14;101148.97;;;18.58;59.64
61337;BME280;47212;41.326;2.104;2023-05-20T22:04:16;101150.19;;;18.52;59.42
61337;BME280;47212;41.326;2.104;2023-05-20T22:09:20;101147.34;;;18.43;59.71
61337;BME280;47212;41.326;2.104;2023-05-20T22:14:22;101149.88;;;18.39;59.56
61337;BME280;47212;41.326;2.104;2023-05-20T22:19:25;101149.47;;;18.32;59.80
61337;BME280;47212;41.326;2.104;2023-05-20T22:24:27;101139.66;;;18.26;60.05
61337;BME280;47212;41.326;2.104;2023-05-20T22:29:30;101134.25;;;18.21;60.24
61337;BME280;47212;41.326;2.104;2023-05-20T22:34:40;101130.44;;;18.17;60.06
61337;BME280;47212;41.326;2.104;2023-05-20T22:39:46;101131.34;;;18.12;60.53
61337;BME280;47212;41.326;2.104;2023-05-20T22:44:48;101133.38;;;18.07;60.79
61337;BME280;47212;41.326;2.104;2023-05-20T22:49:50;101137.34;;;18.01;60.86
61337;BME280;47212;41.326;2.104;2023-05-20T22:54:53;101132.44;;;17.98;60.81
61337;BME280;47212;41.326;2.104;2023-05-20T22:59:55;101131.09;;;17.95;61.09
61337;BME280;47212;41.326;2.104;2023-05-20T23:04:57;101127.31;;;17.91;61.33
61337;BME280;47212;41.326;2.104;2023-05-20T23:10:07;101134.56;;;17.87;61.60
61337;BME280;47212;41.326;2.104;2023-05-20T23:15:10;101130.47;;;17.85;61.92
61337;BME280;47212;41.326;2.104;2023-05-20T23:20:15;101123.94;;;17.80;61.78
61337;BME280;47212;41.326;2.104;2023-05-20T23:25:22;101116.28;;;17.77;62.41
61337;BME280;47212;41.326;2.104;2023-05-20T23:30:28;101119.34;;;17.76;62.69
61337;BME280;47212;41.326;2.104;2023-05-20T23:35:35;101116.28;;;17.77;62.93
61337;BME280;47212;41.326;2.104;2023-05-20T23:40:47;101114.44;;;17.73;63.45
61337;BME280;47212;41.326;2.104;2023-05-20T23:45:49;101105.13;;;17.69;63.28
61337;BME280;47212;41.326;2.104;2023-05-20T23:51:00;101107.13;;;17.63;63.85
61337;BME280;47212;41.326;2.104;2023-05-20T23:56:08;101095.97;;;17.55;63.93
